sensor_id;sensor_type;location;lat;lon;timestamp;pressure;altitude;pressure_sealevel;temperature;humidity
18749;BME280;9503;53.560;10.246;2023-04-07T00:00:38;101146.44;;;9.39;54.49
18749;BME280;9503;53.560;10.246;2023-04-07T00:03:04;101138.53;;;9.64;55.00
18749;BME280;9503;53.560;10.246;2023-04-07T00:05:32;101143.22;;;9.57;55.36
18749;BME280;9503;53.560;10.246;2023-04-07T00:07:58;101141.44;;;9.41;55.01
18749;BME280;9503;53.560;10.246;2023-04-07T00:10:25;101140.63;;;9.27;55.05
18749;BME280;9503;53.560;10.246;2023-04-07T00:12:52;101141.00;;;9.48;55.22
18749;BME280;9503;53.560;10.246;2023-04-07T00:15:19;101143.97;;;9.26;55.51
18749;BME280;9503;53.560;10.246;2023-04-07T00:17:47;101136.44;;;9.14;56.37
18749;BME280;9503;53.560;10.246;2023-04-07T00:20:14;101138.66;;;9.23;55.99
18749;BME280;9503;53.560;10.246;2023-04-07T00:22:41;101142.84;;;9.36;55.11
18749;BME280;9503;53.560;10.246;2023-04-07T00:25:08;101143.41;;;9.32;54.45
18749;BME280;9503;53.560;10.246;2023-04-07T00:27:35;101143.53;;;9.33;55.50
18749;BME280;9503;53.560;10.246;2023-04-07T00:30:02;101138.09;;;9.14;55.05
18749;BME280;9503;53.560;10.246;2023-04-07T00:32:28;101145.19;;;9.18;55.05
18749;BME280;9503;53.560;10.246;2023-04-07T00:34:56;101146.16;;;9.20;56.14
18749;BME280;9503;53.560;10.246;2023-04-07T00:37:23;101143.47;;;9.04;55.49
18749;BME280;9503;53.560;10.246;2023-04-07T00:39:50;101138.53;;;9.07;55.70
18749;BME280;9503;53.560;10.246;2023-04-07T00:42:17;101143.88;;;8.97;56.18
18749;BME280;9503;53.560;10.246;2023-04-07T00:44:44;101130.34;;;9.12;55.34
18749;BME280;9503;53.560;10.246;2023-04-07T00:47:11;101133.34;;;9.20;55.83
18749;BME280;9503;53.560;10.246;2023-04-07T00:49:37;101139.41;;;8.66;56.31
18749;BME280;9503;53.560;10.246;2023-04-07T00:52:07;101135.63;;;9.16;55.88
18749;BME280;9503;53.560;10.246;2023-04-07T00:54:36;101130.34;;;8.84;56.01
18749;BME280;9503;53.560;10.246;2023-04-07T00:57:02;101131.91;;;9.10;55.82
18749;BME280;9503;53.560;10.246;2023-04-07T00:59:29;101141.22;;;9.38;55.88
18749;BME280;9503;53.560;10.246;2023-04-07T01:02:01;101131.69;;;8.93;56.28
18749;BME280;9503;53.560;10.246;2023-04-07T01:04:32;101134.28;;;8.66;56.84
18749;BME280;9503;53.560;10.246;2023-04-07T01:07:08;101135.47;;;9.12;56.23
18749;BME280;9503;53.560;10.246;2023-04-07T01:09:40;101124.59;;;8.89;56.12
18749;BME280;9503;53.560;10.246;2023-04-07T01:12:12;101127.06;;;9.15;55.76
18749;BME280;9503;53.560;10.246;2023-04-07T01:14:46;101131.91;;;9.10;55.65
18749;BME280;9503;53.560;10.246;2023-04-07T01:17:16;101132.91;;;8.84;55.93
18749;BME280;9503;53.560;10.246;2023-04-07T01:19:47;101129.88;;;8.77;57.01
18749;BME280;9503;53.560;10.246;2023-04-07T01:22:17;101120.53;;;8.64;57.29
18749;BME280;9503;53.560;10.246;2023-04-07T01:25:21;101138.88;;;8.85;56.43
18749;BME280;9503;53.560;10.246;2023-04-07T01:27:57;101124.50;;;8.87;56.36
18749;BME280;9503;53.560;10.246;2023-04-07T01:30:28;101130.31;;;8.30;57.30
18749;BME280;9503;53.560;10.246;2023-04-07T01:32:57;101132.00;;;8.84;56.61
18749;BME280;9503;53.560;10.246;2023-04-07T01:35:25;101131.50;;;8.48;57.10
18749;BME280;9503;53.560;10.246;2023-04-07T01:37:54;101128.72;;;8.58;56.77
18749;BME280;9503;53.560;10.246;2023-04-07T01:40:22;101132.22;;;9.02;55.62
18749;BME280;9503;53.560;10.246;2023-04-07T01:42:50;101132.09;;;8.85;56.25
18749;BME280;9503;53.560;10.246;2023-04-07T01:45:17;101130.78;;;8.51;57.36
18749;BME280;9503;53.560;10.246;2023-04-07T01:47:48;101136.47;;;8.20;57.42
18749;BME280;9503;53.560;10.246;2023-04-07T01:50:15;101136.78;;;8.51;57.46
18749;BME280;9503;53.560;10.246;2023-04-07T01:52:43;101128.25;;;8.24;57.25
18749;BME280;9503;53.560;10.246;2023-04-07T01:55:10;101127.25;;;8.62;56.69
18749;BME280;9503;53.560;10.246;2023-04-07T01:57:36;101127.16;;;8.21;57.40
18749;BME280;9503;53.560;10.246;2023-04-07T02:00:04;101130.38;;;8.58;57.12
18749;BME280;9503;53.560;10.246;2023-04-07T02:02:32;101138.75;;;8.42;57.10
18749;BME280;9503;53.560;10.246;2023-04-07T02:05:04;101131.97;;;8.56;56.60
18749;BME280;9503;53.560;10.246;2023-04-07T02:07:37;101131.75;;;8.66;56.93
18749;BME280;9503;53.560;10.246;2023-04-07T02:10:07;101127.06;;;8.19;57.78
18749;BME280;9503;53.560;10.246;2023-04-07T02:12:36;101135.50;;;8.31;57.81
18749;BME280;9503;53.560;10.246;2023-04-07T02:15:04;101133.06;;;8.33;57.25
18749;BME280;9503;53.560;10.246;2023-04-07T02:17:35;101133.94;;;8.20;57.38
18749;BME280;9503;53.560;10.246;2023-04-07T02:20:06;101130.88;;;8.13;57.62
18749;BME280;9503;53.560;10.246;2023-04-07T02:22:33;101133.13;;;8.35;56.99
18749;BME280;9503;53.560;10.246;2023-04-07T02:25:00;101132.19;;;8.46;57.08
18749;BME280;9503;53.560;10.246;2023-04-07T02:27:27;101129.44;;;8.43;56.86
18749;BME280;9503;53.560;10.246;2023-04-07T02:29:54;101131.38;;;8.07;57.55
18749;BME280;9503;53.560;10.246;2023-04-07T02:32:20;101140.03;;;8.36;57.22
18749;BME280;9503;53.560;10.246;2023-04-07T02:34:47;101133.13;;;8.35;56.62
18749;BME280;9503;53.560;10.246;2023-04-07T02:37:15;101139.16;;;8.09;57.10
18749;BME280;9503;53.560;10.246;2023-04-07T02:39:41;101140.19;;;8.65;56.65
18749;BME280;9503;53.560;10.246;2023-04-07T02:42:11;101136.03;;;8.39;56.12
18749;BME280;9503;53.560;10.246;2023-04-07T02:44:38;101140.22;;;8.12;56.98
18749;BME280;9503;53.560;10.246;2023-04-07T02:47:04;101139.63;;;7.90;57.65
18749;BME280;9503;53.560;10.246;2023-04-07T02:49:31;101140.94;;;8.23;57.17
18749;BME280;9503;53.560;10.246;2023-04-07T02:51:57;101145.81;;;8.33;57.06
18749;BME280;9503;53.560;10.246;2023-04-07T02:54:25;101136.56;;;8.22;56.95
18749;BME280;9503;53.560;10.246;2023-04-07T02:56:52;101145.28;;;8.78;55.83
18749;BME280;9503;53.560;10.246;2023-04-07T02:59:19;101146.78;;;8.22;56.82
18749;BME280;9503;53.560;10.246;2023-04-07T03:01:45;101141.75;;;7.84;57.42
18749;BME280;9503;53.560;10.246;2023-04-07T03:04:12;101142.59;;;8.36;56.68
18749;BME280;9503;53.560;10.246;2023-04-07T03:06:38;101150.50;;;8.00;57.35
18749;BME280;9503;53.560;10.246;2023-04-07T03:09:05;101144.16;;;8.20;56.64
18749;BME280;9503;53.560;10.246;2023-04-07T03:11:33;101145.63;;;8.03;57.42
18749;BME280;9503;53.560;10.246;2023-04-07T03:14:00;101144.25;;;8.09;57.00
18749;BME280;9503;53.560;10.246;2023-04-07T03:16:26;101145.22;;;7.97;56.86
18749;BME280;9503;53.560;10.246;2023-04-07T03:18:53;101148.72;;;8.38;56.58
18749;BME280;9503;53.560;10.246;2023-04-07T03:21:20;101141.59;;;7.94;57.10
18749;BME280;9503;53.560;10.246;2023-04-07T03:23:46;101143.56;;;8.24;56.57
18749;BME280;9503;53.560;10.246;2023-04-07T03:26:13;101146.69;;;8.07;56.66
18749;BME280;9503;53.560;10.246;2023-04-07T03:28:41;101150.25;;;8.09;57.13
18749;BME280;9503;53.560;10.246;2023-04-07T03:31:07;101146.69;;;8.20;56.86
18749;BME280;9503;53.560;10.246;2023-04-07T03:33:34;101150.03;;;8.06;56.37
18749;BME280;9503;53.560;10.246;2023-04-07T03:36:01;101151.22;;;7.98;56.69
18749;BME280;9503;53.560;10.246;2023-04-07T03:38:27;101155.06;;;8.04;57.03
18749;BME280;9503;53.560;10.246;2023-04-07T03:40:54;101152.81;;;8.36;56.42
18749;BME280;9503;53.560;10.246;2023-04-07T03:43:20;101156.34;;;8.24;56.43
18749;BME280;9503;53.560;10.246;2023-04-07T03:45:48;101159.88;;;8.26;56.57
18749;BME280;9503;53.560;10.246;2023-04-07T03:48:15;101155.13;;;8.06;57.17
18749;BME280;9503;53.560;10.246;2023-04-07T03:50:42;101156.91;;;8.07;56.80
18749;BME280;9503;53.560;10.246;2023-04-07T03:53:09;101166.50;;;7.85;57.28
18749;BME280;9503;53.560;10.246;2023-04-07T03:55:35;101156.84;;;7.67;57.75
18749;BME280;9503;53.560;10.246;2023-04-07T03:58:02;101169.66;;;7.81;57.65
18749;BME280;9503;53.560;10.246;2023-04-07T04:00:29;101164.66;;;7.82;57.20
18749;BME280;9503;53.560;10.246;2023-04-07T04:02:58;101164.97;;;7.87;56.96
18749;BME280;9503;53.560;10.246;2023-04-07T04:05:25;101168.81;;;7.68;57.76
18749;BME280;9503;53.560;10.246;2023-04-07T04:07:52;101166.75;;;8.01;57.21
18749;BME280;9503;53.560;10.246;2023-04-07T04:10:18;101174.47;;;7.51;58.28
18749;BME280;9503;53.560;10.246;2023-04-07T04:12:46;101174.38;;;7.88;57.14
18749;BME280;9503;53.560;10.246;2023-04-07T04:15:14;101180.28;;;8.13;56.26
18749;BME280;9503;53.560;10.246;2023-04-07T04:17:41;101180.00;;;7.32;58.66
18749;BME280;9503;53.560;10.246;2023-04-07T04:20:09;101179.25;;;7.71;57.69
18749;BME280;9503;53.560;10.246;2023-04-07T04:22:36;101179.25;;;7.85;57.39
18749;BME280;9503;53.560;10.246;2023-04-07T04:25:03;101189.41;;;7.96;57.24
18749;BME280;9503;53.560;10.246;2023-04-07T04:27:30;101190.22;;;8.09;56.67
18749;BME280;9503;53.560;10.246;2023-04-07T04:29:57;101191.66;;;7.92;57.53
18749;BME280;9503;53.560;10.246;2023-04-07T04:32:23;101191.47;;;7.51;58.04
18749;BME280;9503;53.560;10.246;2023-04-07T04:34:50;101187.56;;;7.69;57.61
18749;BME280;9503;53.560;10.246;2023-04-07T04:37:18;101196.06;;;7.56;58.33
18749;BME280;9503;53.560;10.246;2023-04-07T04:39:45;101196.75;;;7.54;58.65
18749;BME280;9503;53.560;10.246;2023-04-07T04:42:11;101201.44;;;7.47;58.85
18749;BME280;9503;53.560;10.246;2023-04-07T04:44:38;101196.09;;;7.19;59.28
18749;BME280;9503;53.560;10.246;2023-04-07T04:47:05;101204.97;;;7.25;59.63
18749;BME280;9503;53.560;10.246;2023-04-07T04:49:32;101204.03;;;7.61;58.69
18749;BME280;9503;53.560;10.246;2023-04-07T04:51:58;101206.44;;;7.46;58.74
18749;BME280;9503;53.560;10.246;2023-04-07T04:54:26;101211.28;;;6.93;59.71
18749;BME280;9503;53.560;10.246;2023-04-07T04:56:53;101213.97;;;7.19;60.01
18749;BME280;9503;53.560;10.246;2023-04-07T04:59:21;101204.41;;;7.29;59.27
18749;BME280;9503;53.560;10.246;2023-04-07T05:01:48;101214.91;;;7.08;60.02
18749;BME280;9503;53.560;10.246;2023-04-07T05:04:15;101208.91;;;7.08;59.76
18749;BME280;9503;53.560;10.246;2023-04-07T05:06:43;101217.81;;;6.89;60.79
18749;BME280;9503;53.560;10.246;2023-04-07T05:09:10;101219.47;;;7.37;59.86
18749;BME280;9503;53.560;10.246;2023-04-07T05:11:39;101223.16;;;7.54;59.56
18749;BME280;9503;53.560;10.246;2023-04-07T05:14:06;101225.97;;;7.45;59.31
18749;BME280;9503;53.560;10.246;2023-04-07T05:16:33;101229.50;;;7.23;59.50
18749;BME280;9503;53.560;10.246;2023-04-07T05:19:00;101232.56;;;7.55;59.27
18749;BME280;9503;53.560;10.246;2023-04-07T05:21:26;101241.09;;;7.56;59.38
18749;BME280;9503;53.560;10.246;2023-04-07T05:23:53;101239.94;;;7.02;60.42
18749;BME280;9503;53.560;10.246;2023-04-07T05:26:20;101249.34;;;7.52;60.23
18749;BME280;9503;53.560;10.246;2023-04-07T05:28:48;101237.84;;;7.45;60.19
18749;BME280;9503;53.560;10.246;2023-04-07T05:31:15;101245.09;;;8.40;58.38
18749;BME280;9503;53.560;10.246;2023-04-07T05:33:41;101250.97;;;9.61;55.43
18749;BME280;9503;53.560;10.246;2023-04-07T05:36:08;101254.22;;;10.44;52.72
18749;BME280;9503;53.560;10.246;2023-04-07T05:38:35;101254.63;;;10.67;51.55
18749;BME280;9503;53.560;10.246;2023-04-07T05:41:01;101249.38;;;11.11;51.73
18749;BME280;9503;53.560;10.246;2023-04-07T05:43:28;101255.16;;;10.92;52.02
18749;BME280;9503;53.560;10.246;2023-04-07T05:45:56;101256.63;;;11.34;50.70
18749;BME280;9503;53.560;10.246;2023-04-07T05:48:22;101253.81;;;11.79;49.02
18749;BME280;9503;53.560;10.246;2023-04-07T05:50:49;101258.97;;;11.46;49.09
18749;BME280;9503;53.560;10.246;2023-04-07T05:53:16;101262.31;;;10.08;52.60
18749;BME280;9503;53.560;10.246;2023-04-07T05:55:42;101258.69;;;9.76;53.26
18749;BME280;9503;53.560;10.246;2023-04-07T05:58:09;101267.25;;;9.34;52.80
18749;BME280;9503;53.560;10.246;2023-04-07T06:00:36;101269.25;;;9.95;54.25
18749;BME280;9503;53.560;10.246;2023-04-07T06:03:04;101268.19;;;10.95;50.64
18749;BME280;9503;53.560;10.246;2023-04-07T06:05:30;101274.16;;;10.35;51.87
18749;BME280;9503;53.560;10.246;2023-04-07T06:07:58;101284.84;;;10.87;51.11
18749;BME280;9503;53.560;10.246;2023-04-07T06:10:25;101281.31;;;11.01;51.18
18749;BME280;9503;53.560;10.246;2023-04-07T06:12:52;101282.19;;;9.41;53.74
18749;BME280;9503;53.560;10.246;2023-04-07T06:15:18;101277.34;;;10.46;52.69
18749;BME280;9503;53.560;10.246;2023-04-07T06:17:45;101286.03;;;10.94;51.42
18749;BME280;9503;53.560;10.246;2023-04-07T06:20:13;101281.56;;;12.18;49.81
18749;BME280;9503;53.560;10.246;2023-04-07T06:22:39;101289.72;;;13.15;47.70
18749;BME280;9503;53.560;10.246;2023-04-07T06:25:07;101292.22;;;12.96;47.19
18749;BME280;9503;53.560;10.246;2023-04-07T06:27:34;101299.34;;;12.84;46.71
18749;BME280;9503;53.560;10.246;2023-04-07T06:30:01;101298.84;;;13.26;45.85
18749;BME280;9503;53.560;10.246;2023-04-07T06:32:27;101298.66;;;13.41;45.97
18749;BME280;9503;53.560;10.246;2023-04-07T06:34:54;101310.16;;;13.87;45.84
18749;BME280;9503;53.560;10.246;2023-04-07T06:37:22;101306.06;;;14.11;45.08
18749;BME280;9503;53.560;10.246;2023-04-07T06:39:50;101309.00;;;13.99;45.11
18749;BME280;9503;53.560;10.246;2023-04-07T06:42:17;101308.38;;;14.05;45.15
18749;BME280;9503;53.560;10.246;2023-04-07T06:44:43;101313.47;;;14.63;44.07
18749;BME280;9503;53.560;10.246;2023-04-07T06:47:10;101316.50;;;13.95;45.17
18749;BME280;9503;53.560;10.246;2023-04-07T06:49:36;101307.75;;;12.80;46.10
18749;BME280;9503;53.560;10.246;2023-04-07T06:52:03;101317.09;;;13.31;46.02
18749;BME280;9503;53.560;10.246;2023-04-07T06:54:32;101322.22;;;13.88;45.09
18749;BME280;9503;53.560;10.246;2023-04-07T06:56:58;101316.25;;;13.14;45.94
18749;BME280;9503;53.560;10.246;2023-04-07T06:59:25;101324.47;;;14.19;44.73
18749;BME280;9503;53.560;10.246;2023-04-07T07:01:52;101320.72;;;13.73;44.70
18749;BME280;9503;53.560;10.246;2023-04-07T07:04:19;101318.50;;;13.62;44.79
18749;BME280;9503;53.560;10.246;2023-04-07T07:06:45;101326.66;;;13.90;44.16
18749;BME280;9503;53.560;10.246;2023-04-07T07:09:12;101322.50;;;13.74;44.42
18749;BME280;9503;53.560;10.246;2023-04-07T07:11:40;101329.31;;;14.32;43.47
18749;BME280;9503;53.560;10.246;2023-04-07T07:14:06;101332.53;;;14.26;43.40
18749;BME280;9503;53.560;10.246;2023-04-07T07:16:33;101330.81;;;14.67;43.33
18749;BME280;9503;53.560;10.246;2023-04-07T07:19:01;101331.94;;;14.74;43.06
18749;BME280;9503;53.560;10.246;2023-04-07T07:21:28;101332.56;;;14.68;42.87
18749;BME280;9503;53.560;10.246;2023-04-07T07:23:55;101340.38;;;15.79;41.20
18749;BME280;9503;53.560;10.246;2023-04-07T07:26:22;101331.63;;;16.48;40.34
18749;BME280;9503;53.560;10.246;2023-04-07T07:28:50;101338.16;;;15.43;41.40
18749;BME280;9503;53.560;10.246;2023-04-07T07:31:17;101336.34;;;14.97;42.69
18749;BME280;9503;53.560;10.246;2023-04-07T07:33:43;101345.25;;;13.65;44.33
18749;BME280;9503;53.560;10.246;2023-04-07T07:36:12;101340.91;;;13.09;45.13
18749;BME280;9503;53.560;10.246;2023-04-07T07:38:39;101347.25;;;13.71;44.40
18749;BME280;9503;53.560;10.246;2023-04-07T07:41:06;101346.66;;;13.96;43.72
18749;BME280;9503;53.560;10.246;2023-04-07T07:43:33;101349.63;;;13.86;43.68
18749;BME280;9503;53.560;10.246;2023-04-07T07:46:02;101347.84;;;13.65;44.31
18749;BME280;9503;53.560;10.246;2023-04-07T07:48:29;101355.19;;;13.95;43.85
18749;BME280;9503;53.560;10.246;2023-04-07T07:50:56;101363.59;;;14.10;43.08
18749;BME280;9503;53.560;10.246;2023-04-07T07:53:22;101357.16;;;13.44;43.94
18749;BME280;9503;53.560;10.246;2023-04-07T07:55:49;101360.63;;;13.81;43.87
18749;BME280;9503;53.560;10.246;2023-04-07T07:58:16;101368.72;;;14.68;42.91
18749;BME280;9503;53.560;10.246;2023-04-07T08:00:42;101365.13;;;14.05;43.47
18749;BME280;9503;53.560;10.246;2023-04-07T08:03:11;101367.00;;;14.89;42.30
18749;BME280;9503;53.560;10.246;2023-04-07T08:05:37;101362.75;;;14.69;42.59
18749;BME280;9503;53.560;10.246;2023-04-07T08:08:04;101373.94;;;14.49;43.07
18749;BME280;9503;53.560;10.246;2023-04-07T08:10:31;101366.19;;;15.34;41.53
18749;BME280;9503;53.560;10.246;2023-04-07T08:12:57;101365.94;;;16.43;40.25
18749;BME280;9503;53.560;10.246;2023-04-07T08:15:24;101372.44;;;16.55;40.40
18749;BME280;9503;53.560;10.246;2023-04-07T08:17:50;101372.78;;;16.41;40.98
18749;BME280;9503;53.560;10.246;2023-04-07T08:20:18;101378.25;;;15.78;41.20
18749;BME280;9503;53.560;10.246;2023-04-07T08:22:45;101382.88;;;16.33;41.13
18749;BME280;9503;53.560;10.246;2023-04-07T08:25:12;101379.34;;;15.83;40.07
18749;BME280;9503;53.560;10.246;2023-04-07T08:27:38;101378.31;;;16.02;40.77
18749;BME280;9503;53.560;10.246;2023-04-07T08:30:06;101377.75;;;15.87;40.24
18749;BME280;9503;53.560;10.246;2023-04-07T08:32:34;101381.34;;;16.64;39.98
18749;BME280;9503;53.560;10.246;2023-04-07T08:35:01;101377.63;;;16.08;39.62
18749;BME280;9503;53.560;10.246;2023-04-07T08:37:29;101379.31;;;15.61;40.39
18749;BME280;9503;53.560;10.246;2023-04-07T08:39:56;101371.19;;;15.72;40.69
18749;BME280;9503;53.560;10.246;2023-04-07T08:42:26;101384.59;;;16.33;40.60
18749;BME280;9503;53.560;10.246;2023-04-07T08:44:55;101379.78;;;16.94;39.41
18749;BME280;9503;53.560;10.246;2023-04-07T08:47:22;101381.34;;;16.89;39.90
18749;BME280;9503;53.560;10.246;2023-04-07T08:49:51;101381.53;;;16.20;40.26
18749;BME280;9503;53.560;10.246;2023-04-07T08:52:21;101388.97;;;15.87;40.74
18749;BME280;9503;53.560;10.246;2023-04-07T08:54:50;101393.47;;;15.05;41.50
18749;BME280;9503;53.560;10.246;2023-04-07T08:57:17;101388.31;;;15.93;41.67
18749;BME280;9503;53.560;10.246;2023-04-07T08:59:45;101387.66;;;16.22;41.35
18749;BME280;9503;53.560;10.246;2023-04-07T09:02:13;101379.78;;;16.69;40.82
18749;BME280;9503;53.560;10.246;2023-04-07T09:04:42;101384.72;;;16.87;40.49
18749;BME280;9503;53.560;10.246;2023-04-07T09:07:09;101379.75;;;16.93;40.63
18749;BME280;9503;53.560;10.246;2023-04-07T09:09:36;101381.72;;;16.25;39.99
18749;BME280;9503;53.560;10.246;2023-04-07T09:12:04;101386.13;;;15.59;40.99
18749;BME280;9503;53.560;10.246;2023-04-07T09:14:30;101382.78;;;15.39;41.22
18749;BME280;9503;53.560;10.246;2023-04-07T09:16:57;101386.97;;;15.35;40.71
18749;BME280;9503;53.560;10.246;2023-04-07T09:19:25;101385.59;;;16.38;40.29
18749;BME280;9503;53.560;10.246;2023-04-07T09:21:52;101383.03;;;16.14;40.03
18749;BME280;9503;53.560;10.246;2023-04-07T09:24:20;101392.50;;;15.89;40.20
18749;BME280;9503;53.560;10.246;2023-04-07T09:26:47;101378.41;;;16.53;39.62
18749;BME280;9503;53.560;10.246;2023-04-07T09:29:18;101382.75;;;15.82;41.01
18749;BME280;9503;53.560;10.246;2023-04-07T09:31:46;101382.88;;;15.63;39.82
18749;BME280;9503;53.560;10.246;2023-04-07T09:34:25;101382.19;;;15.91;41.12
18749;BME280;9503;53.560;10.246;2023-04-07T09:36:52;101379.28;;;16.06;40.42
18749;BME280;9503;53.560;10.246;2023-04-07T09:39:19;101385.91;;;15.97;40.44
18749;BME280;9503;53.560;10.246;2023-04-07T09:41:46;101390.47;;;16.28;40.24
18749;BME280;9503;53.560;10.246;2023-04-07T09:44:12;101383.16;;;16.17;39.88
18749;BME280;9503;53.560;10.246;2023-04-07T09:46:49;101375.28;;;16.89;39.68
18749;BME280;9503;53.560;10.246;2023-04-07T09:49:16;101372.03;;;17.21;38.81
18749;BME280;9503;53.560;10.246;2023-04-07T09:51:52;101376.97;;;17.13;38.77
18749;BME280;9503;53.560;10.246;2023-04-07T09:54:31;101373.84;;;16.97;39.56
18749;BME280;9503;53.560;10.246;2023-04-07T09:56:59;101375.31;;;17.71;38.80
18749;BME280;9503;53.560;10.246;2023-04-07T09:59:27;101373.72;;;17.19;38.68
18749;BME280;9503;53.560;10.246;2023-04-07T10:01:55;101378.41;;;16.53;39.71
18749;BME280;9503;53.560;10.246;2023-04-07T10:04:22;101371.31;;;16.98;40.05
18749;BME280;9503;53.560;10.246;2023-04-07T10:06:51;101372.97;;;17.52;40.39
18749;BME280;9503;53.560;10.246;2023-04-07T10:09:19;101378.72;;;16.88;39.30
18749;BME280;9503;53.560;10.246;2023-04-07T10:11:46;101374.50;;;16.66;39.98
18749;BME280;9503;53.560;10.246;2023-04-07T10:14:14;101378.47;;;16.80;39.93
18749;BME280;9503;53.560;10.246;2023-04-07T10:16:45;101379.63;;;15.91;39.82
18749;BME280;9503;53.560;10.246;2023-04-07T10:19:13;101375.03;;;16.08;39.52
18749;BME280;9503;53.560;10.246;2023-04-07T10:21:42;101378.13;;;16.45;39.16
18749;BME280;9503;53.560;10.246;2023-04-07T10:24:18;101378.50;;;16.08;40.08
18749;BME280;9503;53.560;10.246;2023-04-07T10:26:52;101383.31;;;16.21;40.28
18749;BME280;9503;53.560;10.246;2023-04-07T10:29:20;101378.63;;;16.35;40.06
18749;BME280;9503;53.560;10.246;2023-04-07T10:31:49;101380.88;;;17.01;39.01
18749;BME280;9503;53.560;10.246;2023-04-07T10:34:54;101380.78;;;16.72;39.69
18749;BME280;9503;53.560;10.246;2023-04-07T10:37:22;101380.72;;;16.45;39.81
18749;BME280;9503;53.560;10.246;2023-04-07T10:39:51;101380.50;;;17.16;39.19
18749;BME280;9503;53.560;10.246;2023-04-07T10:42:43;101368.59;;;17.22;39.24
18749;BME280;9503;53.560;10.246;2023-04-07T10:45:10;101373.38;;;17.37;38.88
18749;BME280;9503;53.560;10.246;2023-04-07T10:48:08;101377.88;;;18.00;38.59
18749;BME280;9503;53.560;10.246;2023-04-07T10:50:37;101373.16;;;16.75;39.81
18749;BME280;9503;53.560;10.246;2023-04-07T10:53:05;101383.16;;;17.73;39.47
18749;BME280;9503;53.560;10.246;2023-04-07T10:55:35;101365.91;;;17.75;38.17
18749;BME280;9503;53.560;10.246;2023-04-07T10:58:15;101382.59;;;17.00;37.85
18749;BME280;9503;53.560;10.246;2023-04-07T11:01:14;101382.25;;;17.44;37.67
18749;BME280;9503;53.560;10.246;2023-04-07T11:03:32;101377.88;;;17.43;38.98
18749;BME280;9503;53.560;10.246;2023-04-07T11:06:05;101378.38;;;17.86;38.90
18749;BME280;9503;53.560;10.246;2023-04-07T11:08:32;101374.44;;;17.71;39.82
18749;BME280;9503;53.560;10.246;2023-04-07T11:10:59;101381.69;;;18.12;39.57
18749;BME280;9503;53.560;10.246;2023-04-07T11:13:26;101374.03;;;17.85;38.05
18749;BME280;9503;53.560;10.246;2023-04-07T11:15:53;101373.16;;;18.16;39.01
18749;BME280;9503;53.560;10.246;2023-04-07T11:18:21;101377.75;;;17.95;38.94
18749;BME280;9503;53.560;10.246;2023-04-07T11:20:51;101377.69;;;17.65;38.85
18749;BME280;9503;53.560;10.246;2023-04-07T11:23:21;101388.53;;;18.42;37.34
18749;BME280;9503;53.560;10.246;2023-04-07T11:25:50;101370.63;;;18.19;38.64
18749;BME280;9503;53.560;10.246;2023-04-07T11:28:18;101379.56;;;17.99;39.14
18749;BME280;9503;53.560;10.246;2023-04-07T11:30:47;101375.88;;;17.62;38.40
18749;BME280;9503;53.560;10.246;2023-04-07T11:33:17;101376.41;;;18.09;38.71
18749;BME280;9503;53.560;10.246;2023-04-07T11:35:51;101368.28;;;17.68;38.13
18749;BME280;9503;53.560;10.246;2023-04-07T11:38:22;101378.94;;;17.21;38.35
18749;BME280;9503;53.560;10.246;2023-04-07T11:40:49;101380.69;;;17.49;38.31
18749;BME280;9503;53.560;10.246;2023-04-07T11:43:20;101374.06;;;17.31;38.96
18749;BME280;9503;53.560;10.246;2023-04-07T11:46:03;101383.38;;;17.25;39.04
18749;BME280;9503;53.560;10.246;2023-04-07T11:48:31;101381.66;;;17.54;38.29
18749;BME280;9503;53.560;10.246;2023-04-07T11:50:59;101375.66;;;17.55;38.61
18749;BME280;9503;53.560;10.246;2023-04-07T11:53:28;101383.75;;;18.24;37.87
18749;BME280;9503;53.560;10.246;2023-04-07T11:56:02;101386.66;;;18.05;38.36
18749;BME280;9503;53.560;10.246;2023-04-07T11:58:29;101387.06;;;17.88;37.86
18749;BME280;9503;53.560;10.246;2023-04-07T12:00:57;101381.84;;;18.18;37.82
18749;BME280;9503;53.560;10.246;2023-04-07T12:03:27;101378.53;;;17.64;38.35
18749;BME280;9503;53.560;10.246;2023-04-07T12:05:54;101382.84;;;17.63;37.54
18749;BME280;9503;53.560;10.246;2023-04-07T12:08:37;101379.22;;;17.30;37.31
18749;BME280;9503;53.560;10.246;2023-04-07T12:11:05;101385.56;;;17.68;37.20
18749;BME280;9503;53.560;10.246;2023-04-07T12:13:32;101384.13;;;18.38;36.86
18749;BME280;9503;53.560;10.246;2023-04-07T12:15:59;101384.97;;;19.03;36.33
18749;BME280;9503;53.560;10.246;2023-04-07T12:18:26;101383.88;;;18.95;37.19
18749;BME280;9503;53.560;10.246;2023-04-07T12:20:53;101391.53;;;18.57;37.08
18749;BME280;9503;53.560;10.246;2023-04-07T12:23:20;101384.00;;;18.99;36.58
18749;BME280;9503;53.560;10.246;2023-04-07T12:25:49;101389.28;;;19.02;37.33
18749;BME280;9503;53.560;10.246;2023-04-07T12:28:16;101393.66;;;18.70;38.22
18749;BME280;9503;53.560;10.246;2023-04-07T12:30:43;101383.59;;;18.83;37.86
18749;BME280;9503;53.560;10.246;2023-04-07T12:33:09;101388.38;;;18.66;38.56
18749;BME280;9503;53.560;10.246;2023-04-07T12:35:36;101383.78;;;18.90;38.58
18749;BME280;9503;53.560;10.246;2023-04-07T12:38:04;101391.78;;;18.99;38.04
18749;BME280;9503;53.560;10.246;2023-04-07T12:40:31;101399.56;;;18.98;37.56
18749;BME280;9503;53.560;10.246;2023-04-07T12:43:00;101397.91;;;18.67;38.22
18749;BME280;9503;53.560;10.246;2023-04-07T12:45:26;101392.88;;;19.09;37.79
18749;BME280;9503;53.560;10.246;2023-04-07T12:47:54;101387.44;;;19.35;36.72
18749;BME280;9503;53.560;10.246;2023-04-07T12:50:21;101396.81;;;18.59;37.22
18749;BME280;9503;53.560;10.246;2023-04-07T12:52:49;101394.84;;;18.83;36.75
18749;BME280;9503;53.560;10.246;2023-04-07T12:55:16;101386.53;;;18.96;36.53
18749;BME280;9503;53.560;10.246;2023-04-07T12:57:43;101392.69;;;19.01;35.92
18749;BME280;9503;53.560;10.246;2023-04-07T13:00:12;101391.53;;;18.24;37.31